Latest Weather Observations for Richmond

IDQ60801

Issued at 4:32 am EST Monday 15 February 2016 (issued every 30 minutes, with the page automatically refreshed every 10 minutes)

About weather observations | Map of weather stations | Latest weather observations for QLD | Other Formats
Station Details ID: 030161 Name: RICHMOND AIRPORT Lat: -20.70 Lon: 143.12 Height: 206.3 m
Data from the previous 72 hours. | See also: Recent months at Richmond
Date/Time
EST
Temp
°C
App
Temp
°C
Dew
Point
Rel
Hum
%
Delta-T
°C
Wind Press
QNH
hPa
Press
MSL
hPa
Rain
since 9 am
mm
Dir
 
Spd
km/h
Gust
km/h
Spd
kts
Gust
kts
15/04:30am 22.6 21.5 10.7 47 6.6 ENE 7 11 4 6 1007.6 1006.1 0.0
15/04:00am 23.4 22.0 9.4 41 7.7 ENE 7 9 4 5 1007.4 1005.9 0.0
15/03:30am 24.5 22.7 9.6 39 8.2 ENE 9 11 5 6 1007.3 1005.8 0.0
15/03:00am 24.2 21.7 9.8 40 8.0 E 13 15 7 8 1007.3 1005.8 0.0
15/02:30am 24.5 23.0 10.4 41 7.9 NE 9 9 5 5 1007.3 1005.8 0.0
15/02:00am 25.8 24.0 9.6 36 9.0 NE 9 11 5 6 1007.4 1005.9 0.0
15/01:30am 26.2 24.0 9.5 35 9.3 ENE 11 13 6 7 1007.5 1006.0 0.0
15/01:00am 26.1 23.8 9.0 34 9.4 NE 11 13 6 7 1007.8 1006.3 0.0
15/12:30am 27.5 25.3 9.3 32 10.1 ENE 11 13 6 7 1008.0 1006.5 0.0
15/12:00am 27.6 24.6 9.4 32 10.2 E 15 17 8 9 1008.4 1006.9 0.0
 
Date/Time
EST
Temp
°C
App
Temp
°C
Dew
Point
Rel
Hum
%
Delta-T
°C
Wind Press
QNH
hPa
Press
MSL
hPa
Rain
since 9 am
mm
Dir
 
Spd
km/h
Gust
km/h
Spd
kts
Gust
kts
14/11:30pm 28.6 25.5 8.8 29 11.0 E 15 17 8 9 1008.5 1007.0 0.0
14/11:00pm 29.5 27.6 9.1 28 11.5 ENE 9 13 5 7 1008.5 1007.0 0.0
14/10:30pm 29.8 27.1 8.8 27 11.7 E 13 15 7 8 1008.5 1007.0 0.0
14/10:00pm 31.6 28.1 8.6 24 12.9 E 17 20 9 11 1008.3 1006.8 0.0
14/09:30pm 32.2 29.0 8.4 23 13.4 E 15 19 8 10 1008.1 1006.6 0.0
14/09:00pm 32.4 29.5 8.0 22 13.7 ESE 13 17 7 9 1007.9 1006.4 0.0
14/08:30pm 33.5 29.9 6.7 19 14.7 ESE 15 17 8 9 1007.6 1006.1 0.0
14/08:00pm 34.8 30.9 7.0 18 15.5 ESE 17 19 9 10 1007.1 1005.6 0.0
14/07:30pm 36.0 31.5 6.2 16 16.5 ESE 19 24 10 13 1006.6 1005.1 0.0
14/07:00pm 37.0 31.9 6.1 15 17.2 E 22 32 12 17 1006.2 1004.7 0.0
14/06:30pm 38.3 32.8 6.1 14 18.0 ESE 24 32 13 17 1005.7 1004.2 0.0
14/06:00pm 39.0 32.7 5.6 13 18.6 ESE 28 35 15 19 1005.3 1003.8 0.0
14/05:30pm 39.4 34.5 7.0 14 18.4 ESE 22 30 12 16 1004.9 1003.3 0.0
14/05:00pm 39.7 34.5 7.2 14 18.6 ESE 24 37 13 20 1004.7 1003.1 0.0
14/04:33pm 40.2 33.3 6.5 13 19.1 SE 32 50 17 27 1004.5 1002.9 0.0
14/04:30pm 40.4 33.4 6.7 13 19.2 SE 33 50 18 27 1004.4 1002.8 0.0
14/04:14pm 41.3 34.7 6.2 12 19.9 SE 30 52 16 28 1004.5 1002.9 0.0
14/04:00pm 40.8 34.4 7.0 13 19.4 SSE 30 46 16 25 1004.5 1002.9 0.0
14/03:30pm 41.2 34.5 7.3 13 19.5 SSE 32 50 17 27 1004.7 1003.1 0.0
14/03:15pm 40.2 34.1 6.5 13 19.1 SE 28 46 15 25 1004.9 1003.3 0.0
14/03:00pm 41.3 34.4 7.4 13 19.6 SSE 33 46 18 25 1005.0 1003.4 0.0
14/02:30pm 40.8 34.4 7.0 13 19.3 SSE 30 44 16 24 1005.4 1003.9 0.0
14/02:00pm 39.8 34.6 7.3 14 18.6 E 24 41 13 22 1005.6 1004.1 0.0
14/01:30pm 40.1 35.3 7.5 14 18.7 S 22 37 12 20 1006.3 1004.8 0.0
14/01:00pm 40.0 34.8 7.4 14 18.7 SE 24 39 13 21 1006.6 1005.1 0.0
14/12:33pm 38.9 33.4 7.6 15 17.9 SSE 26 46 14 25 1007.1 1005.6 0.0
14/12:30pm 39.7 34.1 7.2 14 18.6 SSE 26 46 14 25 1007.1 1005.6 0.0
14/12:27pm 39.7 34.7 8.2 15 18.2 SE 24 39 13 21 1007.1 1005.6 0.0
14/12:00pm 38.4 36.5 9.0 17 17.2 SSW 9 17 5 9 1007.5 1006.0 0.0
14/11:30am 37.5 35.4 8.3 17 16.8 NW 9 15 5 8 1008.1 1006.6 0.0
14/11:00am 36.3 34.2 9.8 20 15.5 WSW 11 19 6 10 1008.6 1007.1 0.0
14/10:30am 35.4 33.3 11.1 23 14.4 N 13 20 7 11 1008.8 1007.3 0.0
14/10:00am 34.7 32.2 11.2 24 14.0 NNW 15 22 8 12 1009.1 1007.6 0.0
14/09:30am 33.6 30.3 10.9 25 13.3 N 19 24 10 13 1009.5 1007.9 0.0
14/09:00am 32.5 29.8 11.6 28 12.4 NNW 17 24 9 13 1009.5 1007.9 0.0
14/08:30am 30.7 29.0 11.1 30 11.4 NNW 11 15 6 8 1009.5 1007.9 0.0
14/08:00am 28.0 26.3 11.1 35 9.7 NW 11 15 6 8 1009.5 1007.9 0.0
14/07:30am 25.7 24.4 11.1 40 8.3 N 9 13 5 7 1009.2 1007.7 0.0
14/07:00am 23.1 21.7 9.5 42 7.4 N 7 13 4 7 1008.9 1007.4 0.0
14/06:30am 22.3 20.4 10.5 47 6.5 NE 11 11 6 6 1008.5 1007.0 0.0
14/06:00am 22.9 20.9 10.0 44 7.1 NE 11 13 6 7 1008.0 1006.5 0.0
14/05:30am 23.1 21.1 10.2 44 7.1 ENE 11 13 6 7 1007.8 1006.3 0.0
14/05:00am 23.1 21.0 9.8 43 7.3 E 11 15 6 8 1007.6 1006.1 0.0
14/04:30am 23.5 21.3 9.5 41 7.7 ENE 11 13 6 7 1007.4 1005.9 0.0
14/04:00am 24.5 22.7 9.6 39 8.2 NE 9 11 5 6 1007.2 1005.7 0.0
14/03:30am 25.3 23.1 9.2 36 8.9 NE 11 15 6 8 1007.2 1005.7 0.0
14/03:00am 25.5 23.6 8.9 35 9.1 NE 9 13 5 7 1007.2 1005.7 0.0
14/02:30am 25.4 22.9 8.4 34 9.2 NE 11 13 6 7 1007.3 1005.8 0.0
14/02:00am 25.7 22.8 8.2 33 9.5 ENE 13 15 7 8 1007.5 1006.0 0.0
14/01:30am 26.1 24.2 9.0 34 9.4 ENE 9 13 5 7 1007.6 1006.1 0.0
14/01:00am 26.4 24.6 9.3 34 9.5 E 9 13 5 7 1007.8 1006.3 0.0
14/12:30am 26.6 24.8 9.5 34 9.5 ENE 9 11 5 6 1007.9 1006.4 0.0
14/12:00am 27.3 24.8 9.6 33 9.9 E 13 15 7 8 1008.2 1006.7 0.0
 
Date/Time
EST
Temp
°C
App
Temp
°C
Dew
Point
Rel
Hum
%
Delta-T
°C
Wind Press
QNH
hPa
Press
MSL
hPa
Rain
since 9 am
mm
Dir
 
Spd
km/h
Gust
km/h
Spd
kts
Gust
kts
13/11:30pm 27.9 25.7 9.2 31 10.4 E 11 15 6 8 1008.5 1007.0 0.0
13/11:00pm 28.6 25.2 9.3 30 10.8 E 17 17 9 9 1008.6 1007.1 0.0
13/10:30pm 29.2 25.8 9.3 29 11.2 E 17 17 9 9 1008.4 1006.9 0.0
13/10:00pm 30.0 27.3 9.0 27 11.8 E 13 15 7 8 1008.1 1006.6 0.0
13/09:30pm 30.5 27.3 8.3 25 12.3 ESE 15 17 8 9 1007.8 1006.3 0.0
13/09:00pm 31.5 27.9 8.5 24 12.9 ESE 17 20 9 11 1007.5 1006.0 0.0
13/08:30pm 32.3 28.7 8.5 23 13.4 ESE 17 19 9 10 1007.3 1005.8 0.0
13/08:00pm 32.9 29.7 8.4 22 13.8 ESE 15 17 8 9 1007.1 1005.6 0.0
13/07:30pm 34.3 30.8 8.8 21 14.6 ESE 17 19 9 10 1006.7 1005.2 0.0
13/07:00pm 35.5 31.3 8.3 19 15.5 ESE 20 30 11 16 1006.3 1004.8 0.0
13/06:30pm 36.7 30.6 6.8 16 16.7 ESE 28 41 15 22 1006.0 1004.5 0.0
13/06:00pm 37.0 30.8 6.1 15 17.2 SE 28 37 15 20 1005.8 1004.3 0.0
13/05:56pm 36.9 29.9 6.0 15 17.1 SE 32 50 17 27 1005.7 1004.2 0.0
13/05:30pm 38.3 31.3 6.1 14 18.0 SE 32 43 17 23 1005.6 1004.1 0.0
13/05:00pm 38.7 30.6 5.4 13 18.5 SE 37 56 20 30 1005.4 1003.9 0.0
13/04:52pm 39.1 31.5 5.7 13 18.6 SE 35 56 19 30 1005.2 1003.7 0.0
13/04:30pm 39.4 32.2 5.9 13 18.7 SE 33 41 18 22 1005.2 1003.7 0.0
13/04:00pm 39.7 33.0 7.2 14 18.6 ESE 32 41 17 22 1005.3 1003.8 0.0
13/03:30pm 38.9 33.0 7.6 15 17.9 ESE 28 39 15 21 1005.6 1004.1 0.0
13/03:00pm 40.4 34.2 7.8 14 18.9 SE 30 52 16 28 1005.7 1004.2 0.0
13/02:52pm 39.3 33.3 6.9 14 18.4 SE 28 46 15 25 1005.9 1004.4 0.0
13/02:30pm 38.4 32.1 7.2 15 17.7 ESE 30 44 16 24 1006.1 1004.6 0.0
13/02:00pm 38.3 33.1 7.1 15 17.7 ESE 24 39 13 21 1006.7 1005.2 0.0
13/01:36pm 39.4 33.5 8.9 16 17.8 SE 30 48 16 26 1007.1 1005.6 0.0
13/01:30pm 38.1 31.9 7.9 16 17.3 ESE 30 46 16 25 1007.3 1005.8 0.0
13/01:29pm 39.2 33.6 8.8 16 17.7 ESE 28 46 15 25 1007.3 1005.8 0.0
13/01:00pm 37.5 33.0 10.0 19 16.2 SE 24 39 13 21 1007.7 1006.2 0.0
13/12:30pm 37.4 31.9 9.1 18 16.4 ESE 28 44 15 24 1008.1 1006.6 0.0
13/12:03pm 37.5 32.0 9.2 18 16.5 ESE 28 46 15 25 1008.5 1007.0 0.0
13/12:00pm 36.6 31.7 8.4 18 16.2 SE 24 37 13 20 1008.7 1007.2 0.0
13/11:30am 37.1 33.7 10.4 20 15.8 SE 19 39 10 21 1009.2 1007.7 0.0
13/11:00am 35.8 32.3 10.8 22 14.8 ESE 20 32 11 17 1009.6 1008.1 0.0
13/10:30am 34.9 32.8 11.3 24 14.0 ENE 13 17 7 9 1009.9 1008.4 0.0
13/10:00am 34.3 31.9 11.4 25 13.6 E 15 24 8 13 1010.0 1008.5 0.0
13/09:30am 33.4 32.3 11.9 27 12.8 ENE 9 17 5 9 1010.1 1008.6 0.0
13/09:00am 32.2 30.9 11.4 28 12.3 ENE 9 15 5 8 1010.1 1008.6 0.0
13/08:30am 30.7 29.0 12.6 33 10.8 NE 13 19 7 10 1010.0 1008.5 0.0
13/08:00am 28.1 27.0 13.2 39 8.9 NE 11 15 6 8 1009.9 1008.4 0.0
13/07:30am 25.7 25.6 13.9 48 7.0 ENE 7 11 4 6 1009.8 1008.3 0.0
13/07:00am 22.9 22.7 13.7 56 5.4 ENE 7 9 4 5 1009.3 1007.8 0.0
13/06:30am 21.5 21.3 13.7 61 4.5 ENE 7 9 4 5 1009.2 1007.7 0.0
13/06:00am 22.1 21.0 13.2 57 5.2 E 11 13 6 7 1009.0 1007.5 0.0
13/05:30am 22.0 21.3 13.1 57 5.1 ESE 9 11 5 6 1008.7 1007.2 0.0
13/05:00am 21.9 20.7 11.6 52 5.8 E 9 11 5 6 1008.4 1006.9 0.0
13/04:30am 21.4 21.8 11.1 52 5.7 CALM 0 0 0 0 1008.3 1006.8 0.0
13/04:00am 22.1 21.3 11.2 50 6.1 ENE 6 6 3 3 1008.2 1006.7 0.0
13/03:30am 23.5 21.7 12.2 49 6.5 E 13 13 7 7 1008.2 1006.7 0.0
13/03:00am 23.9 22.1 12.2 48 6.7 E 13 13 7 7 1008.2 1006.7 0.0
13/02:30am 24.1 22.7 12.1 47 6.9 E 11 13 6 7 1008.2 1006.7 0.0
13/02:00am 24.6 23.2 12.2 46 7.2 E 11 13 6 7 1008.5 1007.0 0.0
13/01:30am 24.8 23.2 11.7 44 7.5 E 11 13 6 7 1008.7 1007.2 0.0
13/01:00am 24.3 22.6 8.3 36 8.6 ESE 7 9 4 5 1008.8 1007.3 0.0
13/12:30am 27.1 25.5 10.3 35 9.5 E 9 11 5 6 1008.9 1007.4 0.0
13/12:00am 27.9 25.5 10.1 33 10.1 E 13 15 7 8 1009.1 1007.6 0.0
 
Date/Time
EST
Temp
°C
App
Temp
°C
Dew
Point
Rel
Hum
%
Delta-T
°C
Wind Press
QNH
hPa
Press
MSL
hPa
Rain
since 9 am
mm
Dir
 
Spd
km/h
Gust
km/h
Spd
kts
Gust
kts
12/11:30pm 28.8 26.4 10.0 31 10.7 E 13 15 7 8 1009.2 1007.7 0.0
12/11:00pm 29.1 26.8 10.3 31 10.7 E 13 17 7 9 1009.3 1007.8 0.0
12/10:30pm 29.4 26.7 10.5 31 10.8 E 15 17 8 9 1009.3 1007.8 0.0
12/10:00pm 30.3 27.7 10.8 30 11.3 E 15 19 8 10 1009.1 1007.6 0.0
12/09:30pm 31.3 28.1 11.1 29 11.8 ESE 19 24 10 13 1008.8 1007.3 0.0
12/09:00pm 31.8 28.5 11.0 28 12.2 ESE 19 24 10 13 1008.5 1007.0 0.0
12/08:30pm 32.7 29.3 11.3 27 12.6 ESE 20 30 11 16 1008.1 1006.6 0.0
12/08:00pm 33.2 30.2 10.5 25 13.3 ESE 17 22 9 12 1007.7 1006.2 0.0
12/07:30pm 34.1 30.5 10.7 24 13.7 ESE 20 26 11 14 1007.3 1005.8 0.0
12/07:00pm 35.0 30.1 10.1 22 14.6 ESE 26 33 14 18 1007.0 1005.5 0.0
12/06:30pm 36.2 31.0 10.4 21 15.2 ESE 28 41 15 22 1006.5 1005.0 0.0
12/06:00pm 36.6 31.5 10.7 21 15.4 ESE 28 37 15 20 1006.2 1004.7 0.0
12/05:30pm 36.7 32.2 11.5 22 15.1 ESE 26 35 14 19 1006.1 1004.6 0.0
12/05:00pm 37.0 32.6 10.3 20 15.8 E 24 35 13 19 1005.9 1004.4 0.0
12/04:30pm 37.6 32.7 10.0 19 16.3 ESE 26 37 14 20 1005.9 1004.4 0.0
12/04:00pm 38.1 32.0 9.6 18 16.8 SE 32 43 17 23 1006.0 1004.5 0.0
12/03:30pm 37.1 32.7 10.4 20 15.8 ESE 24 41 13 22 1006.3 1004.8 0.0
12/03:00pm 38.0 33.8 11.1 20 16.2 ESE 24 41 13 22 1006.7 1005.2 0.0
12/02:30pm 37.9 33.1 11.8 21 15.8 SSE 28 44 15 24 1007.1 1005.6 0.0
12/02:04pm 38.1 33.2 11.2 20 16.2 SE 28 46 15 25 1007.6 1006.1 0.0
12/02:00pm 36.6 31.9 10.7 21 15.4 SE 26 46 14 25 1007.8 1006.3 0.0
12/01:30pm 36.8 33.1 10.2 20 15.7 E 20 41 11 22 1008.1 1006.6 0.0
12/01:00pm 36.7 31.8 10.1 20 15.7 SE 26 48 14 26 1008.5 1007.0 0.0
12/12:54pm 37.2 33.0 11.2 21 15.6 SE 24 48 13 26 1008.2 1006.7 0.0
12/12:30pm 36.4 32.4 10.6 21 15.3 SSE 22 32 12 17 1009.1 1007.6 0.0
12/12:00pm 35.5 31.1 9.1 20 15.2 SSE 22 41 12 22 1009.6 1008.1 0.0
12/11:30am 35.3 32.6 11.7 24 14.1 E 17 37 9 20 1009.8 1008.3 0.0
12/11:00am 35.6 30.5 9.2 20 15.3 SE 26 39 14 21 1010.3 1008.8 0.0
12/10:30am 33.9 32.3 11.7 26 13.2 NE 11 22 6 12 1010.6 1009.1 0.0
12/10:00am 33.7 33.1 15.7 34 11.4 NNE 13 22 7 12 1010.7 1009.2 0.0
12/09:30am 32.3 31.2 15.3 35 10.6 NNE 15 24 8 13 1010.9 1009.4 0.0
12/09:00am 31.2 30.0 16.0 40 9.6 NNE 17 20 9 11 1011.0 1009.5 0.0
12/08:30am 29.8 29.1 15.5 42 8.9 NNE 13 19 7 10 1011.1 1009.6 0.0
12/08:00am 28.5 28.3 15.8 46 7.9 NE 11 17 6 9 1011.0 1009.5 0.0
12/07:30am 26.4 26.5 15.4 50 6.7 NE 9 11 5 6 1010.8 1009.3 0.0
12/07:00am 24.8 25.3 15.1 54 5.9 NE 6 7 3 4 1010.5 1009.0 0.0
12/06:30am 23.5 23.6 15.5 60 4.8 NE 9 11 5 6 1010.1 1008.6 0.0
12/06:00am 22.4 22.6 14.3 60 4.8 ENE 6 9 3 5 1009.8 1008.3 0.0
12/05:30am 22.0 21.5 12.0 53 5.7 ENE 6 7 3 4 1009.3 1007.8 0.0
12/05:00am 24.0 23.5 13.8 53 6.0 ENE 9 13 5 7 1009.0 1007.5 0.0

Other Formats:

Comma delimited format used in spreadsheet applications
http://www.bom.gov.au/fwo/IDQ60801/IDQ60801.94341.axf

JavaScript Object Notation format (JSON) in row-major order
http://www.bom.gov.au/fwo/IDQ60801/IDQ60801.94341.json